createdAt,value
2023-01-20T00:00:22.739Z,94.81
2023-01-20T00:03:15.815Z,95.05
2023-01-20T00:05:58.189Z,94.89
2023-01-20T00:08:30.843Z,94.85
2023-01-20T00:11:09.194Z,94.75
2023-01-20T00:13:42.427Z,94.37
2023-01-20T00:16:19.544Z,94.53
2023-01-20T00:18:58.067Z,94.61
2023-01-20T00:21:36.973Z,94.66
2023-01-20T00:24:14.860Z,94.72
2023-01-20T00:26:50.485Z,94.60
2023-01-20T00:29:26.898Z,94.59
2023-01-20T00:31:59.507Z,94.51
2023-01-20T00:34:32.166Z,94.33
2023-01-20T00:37:07.980Z,94.22
2023-01-20T00:39:40.515Z,94.16
2023-01-20T00:42:14.889Z,94.09
2023-01-20T00:44:51.387Z,94.07
2023-01-20T00:47:26.890Z,93.96
2023-01-20T00:49:59.245Z,93.96
2023-01-20T00:52:31.738Z,93.69
2023-01-20T00:55:04.843Z,93.66
2023-01-20T00:57:37.215Z,93.50
2023-01-20T01:00:12.041Z,93.60
2023-01-20T01:02:44.495Z,93.37
2023-01-20T01:05:17.786Z,93.50
2023-01-20T01:07:52.763Z,93.11
2023-01-20T01:10:27.477Z,93.42
2023-01-20T01:13:05.365Z,93.34
2023-01-20T01:15:38.029Z,93.15
2023-01-20T01:18:10.359Z,93.16
2023-01-20T01:20:44.859Z,93.17
2023-01-20T01:23:17.306Z,92.94
2023-01-20T01:25:49.686Z,92.66
2023-01-20T01:28:22.188Z,92.86
2023-01-20T01:30:54.790Z,93.11
2023-01-20T01:33:27.293Z,93.11
2023-01-20T01:36:01.066Z,93.10
2023-01-20T01:38:33.444Z,93.00
2023-01-20T01:41:05.918Z,93.14
2023-01-20T01:43:40.620Z,93.10
2023-01-20T01:46:13.405Z,93.16
2023-01-20T01:48:47.253Z,93.22
2023-01-20T01:51:23.922Z,93.21
2023-01-20T01:54:01.750Z,92.99
2023-01-20T01:56:35.192Z,92.77
2023-01-20T01:59:08.120Z,92.72
2023-01-20T02:01:44.592Z,91.92
2023-01-20T02:04:21.986Z,91.96
2023-01-20T02:06:57.759Z,92.21
2023-01-20T02:09:31.931Z,92.29
2023-01-20T02:12:09.703Z,92.26
2023-01-20T02:14:46.057Z,92.31
2023-01-20T02:17:26.883Z,92.49
2023-01-20T02:20:27.735Z,92.77
2023-01-20T02:23:08.780Z,92.49
2023-01-20T02:26:14.285Z,92.28
2023-01-20T02:29:18.119Z,91.98
2023-01-20T02:32:14.975Z,92.18
2023-01-20T02:34:56.006Z,92.33
2023-01-20T02:37:40.137Z,92.29
2023-01-20T02:40:31.298Z,92.18
2023-01-20T02:43:13.759Z,91.96
2023-01-20T02:45:52.213Z,92.07
2023-01-20T02:48:29.881Z,92.00
2023-01-20T02:51:08.444Z,92.05
2023-01-20T02:53:47.805Z,92.06
2023-01-20T02:56:26.969Z,92.04
2023-01-20T02:59:03.719Z,92.14
2023-01-20T03:01:41.423Z,92.13
2023-01-20T03:04:19.542Z,92.10
2023-01-20T03:06:56.211Z,91.85
2023-01-20T03:09:37.064Z,91.70
2023-01-20T03:12:16.329Z,91.67
2023-01-20T03:14:52.081Z,91.26
2023-01-20T03:17:26.081Z,91.33
2023-01-20T03:19:58.703Z,91.08
2023-01-20T03:22:32.062Z,91.06
2023-01-20T03:25:08.685Z,91.20
2023-01-20T03:27:42.251Z,91.46
2023-01-20T03:30:17.597Z,91.72
2023-01-20T03:32:52.586Z,91.49
2023-01-20T03:35:25.747Z,91.41
2023-01-20T03:37:58.651Z,91.53
2023-01-20T03:40:35.373Z,91.35
2023-01-20T03:43:13.718Z,91.34
2023-01-20T03:45:55.882Z,91.54
2023-01-20T03:48:35.424Z,91.75
2023-01-20T03:51:15.247Z,92.00
2023-01-20T03:53:54.697Z,92.05
2023-01-20T03:56:33.238Z,92.05
2023-01-20T03:59:09.265Z,91.96
2023-01-20T04:01:45.779Z,91.82
2023-01-20T04:04:20.982Z,91.58
2023-01-20T04:06:54.256Z,91.86
2023-01-20T04:09:32.227Z,92.04
2023-01-20T04:12:04.851Z,92.00
2023-01-20T04:14:39.482Z,91.60
2023-01-20T04:17:12.587Z,91.55
2023-01-20T04:19:45.151Z,91.22
2023-01-20T04:22:26.835Z,91.18
2023-01-20T04:25:03.000Z,90.82
2023-01-20T04:27:35.982Z,90.69
2023-01-20T04:30:10.216Z,90.91
2023-01-20T04:32:42.769Z,91.05
2023-01-20T04:35:17.609Z,90.99
2023-01-20T04:37:50.392Z,91.16
2023-01-20T04:40:22.930Z,91.12
2023-01-20T04:42:55.474Z,91.14
2023-01-20T04:45:28.160Z,91.14
2023-01-20T04:48:00.634Z,90.35
2023-01-20T04:50:41.099Z,90.37
2023-01-20T04:53:17.098Z,90.60
2023-01-20T04:55:49.865Z,90.75
2023-01-20T04:58:22.251Z,90.73
2023-01-20T05:00:54.721Z,90.98
2023-01-20T05:03:27.095Z,90.88
2023-01-20T05:05:59.572Z,90.51
2023-01-20T05:08:32.276Z,90.45
2023-01-20T05:11:04.906Z,90.48
2023-01-20T05:13:39.463Z,90.56
2023-01-20T05:16:12.870Z,90.33
2023-01-20T05:18:45.548Z,90.50
2023-01-20T05:21:18.135Z,90.37
2023-01-20T05:23:50.564Z,90.52
2023-01-20T05:26:23.303Z,91.04
2023-01-20T05:28:55.898Z,91.13
2023-01-20T05:31:28.241Z,91.03
2023-01-20T05:34:00.843Z,90.85
2023-01-20T05:36:33.217Z,90.79
2023-01-20T05:39:05.640Z,90.76
2023-01-20T05:41:38.108Z,90.47
2023-01-20T05:44:10.510Z,90.29
2023-01-20T05:46:43.238Z,90.80
2023-01-20T05:49:15.678Z,90.75
2023-01-20T05:51:47.881Z,90.85
2023-01-20T05:54:20.322Z,90.93
2023-01-20T05:56:53.094Z,90.87
2023-01-20T05:59:25.949Z,90.81
2023-01-20T06:01:58.930Z,90.85
2023-01-20T06:04:31.434Z,90.93
2023-01-20T06:07:04.020Z,91.11
2023-01-20T06:09:36.298Z,91.14
2023-01-20T06:12:09.091Z,91.09
2023-01-20T06:14:41.455Z,91.19
2023-01-20T06:17:13.759Z,91.27
2023-01-20T06:19:46.264Z,91.11
2023-01-20T06:22:19.791Z,91.17
2023-01-20T06:24:52.201Z,91.24
2023-01-20T06:27:24.471Z,91.31
2023-01-20T06:29:56.796Z,91.46
2023-01-20T06:32:29.041Z,91.37
2023-01-20T06:35:01.279Z,91.57
2023-01-20T06:37:33.747Z,91.74
2023-01-20T06:40:06.759Z,91.72
2023-01-20T06:42:38.974Z,91.69
2023-01-20T06:45:13.109Z,91.65
2023-01-20T06:47:49.177Z,91.87
2023-01-20T06:50:22.150Z,92.03
2023-01-20T06:52:56.930Z,92.06
2023-01-20T06:55:29.458Z,92.35
2023-01-20T06:58:03.953Z,92.42
2023-01-20T07:00:37.692Z,92.15
2023-01-20T07:03:13.964Z,92.22
2023-01-20T07:05:53.441Z,92.45
2023-01-20T07:08:25.892Z,92.61
2023-01-20T07:10:58.333Z,92.36
2023-01-20T07:13:30.553Z,92.42
2023-01-20T07:16:02.942Z,92.49
2023-01-20T07:18:35.621Z,92.52
2023-01-20T07:21:08.630Z,92.65
2023-01-20T07:23:41.020Z,92.57
2023-01-20T07:26:15.887Z,92.60
2023-01-20T07:28:48.997Z,92.78
2023-01-20T07:31:23.006Z,92.80
2023-01-20T07:33:57.453Z,92.68
2023-01-20T07:36:30.882Z,92.66
2023-01-20T07:39:03.161Z,92.72
2023-01-20T07:41:35.905Z,92.99
2023-01-20T07:44:08.373Z,93.05
2023-01-20T07:46:43.339Z,93.10
2023-01-20T07:49:16.840Z,93.11
2023-01-20T07:51:50.362Z,93.28
2023-01-20T07:54:23.304Z,93.54
2023-01-20T07:56:55.806Z,93.43
2023-01-20T07:59:29.191Z,93.51
2023-01-20T08:02:03.941Z,93.51
2023-01-20T08:04:37.451Z,93.64
2023-01-20T08:07:09.936Z,93.69
2023-01-20T08:09:44.104Z,93.76
2023-01-20T08:12:16.602Z,93.72
2023-01-20T08:14:48.976Z,93.49
2023-01-20T08:17:21.298Z,93.48
2023-01-20T08:19:53.580Z,93.46
2023-01-20T08:22:26.627Z,93.46
2023-01-20T08:24:58.896Z,93.17
2023-01-20T08:27:31.250Z,93.59
2023-01-20T08:30:03.516Z,93.90
2023-01-20T08:32:36.331Z,93.87
2023-01-20T08:35:09.407Z,93.71
2023-01-20T08:37:41.917Z,93.70
2023-01-20T08:40:15.138Z,93.82
2023-01-20T08:46:07.149Z,94.03
2023-01-20T08:48:41.306Z,94.02
2023-01-20T08:51:17.033Z,93.97
2023-01-20T08:53:52.537Z,93.99
2023-01-20T08:56:25.120Z,94.33
2023-01-20T08:58:58.756Z,94.39
2023-01-20T09:01:36.038Z,94.60
2023-01-20T09:04:09.943Z,94.63
2023-01-20T09:06:48.717Z,94.69
2023-01-20T09:09:22.896Z,94.64
2023-01-20T09:11:55.299Z,94.41
2023-01-20T09:14:28.371Z,94.37
2023-01-20T09:17:01.814Z,94.53
2023-01-20T09:19:34.163Z,94.50
2023-01-20T09:22:08.838Z,94.59
2023-01-20T09:24:41.511Z,94.50
2023-01-20T09:27:13.819Z,94.55
2023-01-20T09:29:48.355Z,94.67
2023-01-20T09:32:20.965Z,94.70
2023-01-20T09:34:53.401Z,94.75
2023-01-20T09:37:44.198Z,94.68
2023-01-20T09:40:47.847Z,94.77
2023-01-20T09:43:58.699Z,94.70
2023-01-20T09:47:10.550Z,94.65
2023-01-20T09:50:13.181Z,94.77
2023-01-20T09:53:04.952Z,94.86
2023-01-20T09:55:45.187Z,94.92
2023-01-20T09:58:27.004Z,94.63
2023-01-20T10:01:09.881Z,94.63
2023-01-20T10:03:47.849Z,94.65
2023-01-20T10:06:26.654Z,94.85
2023-01-20T10:09:06.201Z,95.21
2023-01-20T10:11:39.856Z,95.63
2023-01-20T10:14:21.971Z,95.44
2023-01-20T10:17:01.325Z,94.93
2023-01-20T10:19:42.460Z,95.02
2023-01-20T10:22:19.169Z,95.18
2023-01-20T10:24:58.321Z,94.98
2023-01-20T10:27:34.544Z,94.79
2023-01-20T10:30:13.612Z,93.98
2023-01-20T10:32:53.973Z,93.90
2023-01-20T10:35:30.450Z,94.00
2023-01-20T10:38:04.547Z,94.11
2023-01-20T10:40:42.431Z,94.24
2023-01-20T10:43:17.276Z,94.53
2023-01-20T10:46:12.470Z,93.58
2023-01-20T10:49:01.306Z,93.11
2023-01-20T10:51:39.933Z,91.27
2023-01-20T10:54:30.318Z,91.72
2023-01-20T10:57:07.298Z,90.90
2023-01-20T10:59:43.727Z,90.63
2023-01-20T11:02:21.044Z,90.55
2023-01-20T11:04:58.918Z,89.94
2023-01-20T11:07:33.743Z,91.21
2023-01-20T11:10:17.912Z,91.33
2023-01-20T11:12:55.038Z,91.46
2023-01-20T11:15:30.573Z,91.06
2023-01-20T11:18:26.551Z,90.61
2023-01-20T11:21:02.264Z,90.64
2023-01-20T11:23:41.655Z,90.75
2023-01-20T11:26:25.629Z,90.33
2023-01-20T11:29:05.376Z,90.46
2023-01-20T11:31:42.585Z,90.92
2023-01-20T11:34:25.553Z,91.04
2023-01-20T11:37:18.105Z,90.92
2023-01-20T11:40:06.083Z,90.83
2023-01-20T11:42:47.461Z,91.06
2023-01-20T11:45:29.320Z,91.16
2023-01-20T11:48:16.860Z,91.05
2023-01-20T11:50:56.326Z,91.23
2023-01-20T11:53:31.793Z,91.08
2023-01-20T11:56:16.570Z,91.15
2023-01-20T11:58:58.413Z,90.89
2023-01-20T12:01:50.633Z,90.96
2023-01-20T12:04:32.457Z,90.91
2023-01-20T12:07:08.527Z,91.09
2023-01-20T12:09:45.251Z,91.21
2023-01-20T12:12:34.030Z,91.03
2023-01-20T12:15:12.355Z,91.08
2023-01-20T12:17:53.716Z,91.09
2023-01-20T12:20:45.624Z,91.18
2023-01-20T12:23:34.071Z,91.51
2023-01-20T12:26:07.992Z,91.61
2023-01-20T12:28:49.044Z,91.29
2023-01-20T12:31:25.453Z,91.00
2023-01-20T12:34:02.361Z,91.13
2023-01-20T12:37:06.762Z,90.95
2023-01-20T12:40:08.730Z,90.37
2023-01-20T12:43:07.993Z,90.51
2023-01-20T12:46:06.296Z,90.63
2023-01-20T12:48:53.980Z,90.83
2023-01-20T12:51:39.752Z,91.02
2023-01-20T12:54:47.715Z,91.02
2023-01-20T12:57:34.329Z,90.96
2023-01-20T13:00:44.122Z,90.99
2023-01-20T13:03:41.887Z,91.20
2023-01-20T13:06:39.737Z,90.90
2023-01-20T13:09:28.275Z,91.19
2023-01-20T13:12:15.172Z,91.06
2023-01-20T13:14:50.298Z,91.12
2023-01-20T13:17:30.561Z,90.96
2023-01-20T13:20:06.133Z,90.79
2023-01-20T13:22:39.505Z,90.86
2023-01-20T13:25:20.171Z,90.87
2023-01-20T13:27:54.699Z,90.88
2023-01-20T13:30:48.445Z,91.04
2023-01-20T13:33:33.827Z,90.98
2023-01-20T13:36:18.427Z,91.18
2023-01-20T13:38:52.716Z,90.94
2023-01-20T13:41:52.353Z,90.77
2023-01-20T13:44:40.267Z,90.70
2023-01-20T13:47:53.128Z,90.73
2023-01-20T13:50:28.331Z,90.92
2023-01-20T13:53:15.360Z,90.71
2023-01-20T13:56:10.933Z,90.74
2023-01-20T13:58:43.301Z,90.85
2023-01-20T14:01:15.823Z,91.04
2023-01-20T14:04:04.915Z,90.85
2023-01-20T14:06:46.038Z,91.09
2023-01-20T14:09:22.845Z,91.13
2023-01-20T14:11:57.323Z,91.24
2023-01-20T14:14:29.733Z,91.12
2023-01-20T14:17:05.642Z,91.06
2023-01-20T14:19:38.635Z,91.17
2023-01-20T14:22:25.041Z,91.22
2023-01-20T14:25:00.897Z,91.14
2023-01-20T14:27:37.574Z,91.19
2023-01-20T14:30:21.657Z,91.28
2023-01-20T14:32:56.796Z,91.23
2023-01-20T14:35:33.546Z,91.37
2023-01-20T14:38:06.150Z,91.22
2023-01-20T14:40:40.376Z,91.38
2023-01-20T14:43:19.767Z,91.40
2023-01-20T14:45:53.547Z,91.47
2023-01-20T14:48:34.776Z,91.41
2023-01-20T14:51:07.593Z,91.32
2023-01-20T14:53:39.974Z,91.51
2023-01-20T14:56:20.881Z,91.42
2023-01-20T14:58:58.335Z,91.42
2023-01-20T15:01:30.897Z,91.55
2023-01-20T15:04:06.153Z,91.64
2023-01-20T15:06:38.774Z,91.75
2023-01-20T15:09:35.377Z,91.90
2023-01-20T15:12:36.356Z,91.97
2023-01-20T15:15:20.739Z,91.89
2023-01-20T15:18:18.035Z,92.00
2023-01-20T15:21:03.831Z,92.01
2023-01-20T15:23:45.955Z,92.22
2023-01-20T15:26:28.837Z,92.17
2023-01-20T15:29:01.477Z,92.09
2023-01-20T15:31:35.122Z,92.15
2023-01-20T15:34:07.487Z,92.38
2023-01-20T15:36:40.314Z,92.36
2023-01-20T15:39:14.570Z,92.36
2023-01-20T15:41:48.899Z,92.34
2023-01-20T15:44:21.339Z,92.46
2023-01-20T15:46:57.297Z,92.55
2023-01-20T15:49:30.475Z,92.53
2023-01-20T15:52:02.752Z,92.78
2023-01-20T15:54:35.614Z,92.96
2023-01-20T15:57:13.439Z,93.19
2023-01-20T15:59:49.806Z,93.33
2023-01-20T16:02:24.521Z,93.64
2023-01-20T16:04:57.040Z,93.29
2023-01-20T16:07:30.532Z,93.32
2023-01-20T16:10:02.948Z,93.43
2023-01-20T16:12:35.276Z,93.62
2023-01-20T16:15:10.817Z,93.76
2023-01-20T16:17:43.967Z,93.99
2023-01-20T16:20:22.923Z,94.07
2023-01-20T16:22:56.874Z,94.02
2023-01-20T16:25:30.337Z,94.21
2023-01-20T16:28:04.406Z,93.95
2023-01-20T16:30:36.702Z,94.25
2023-01-20T16:33:18.725Z,94.27
2023-01-20T16:35:54.070Z,94.28
2023-01-20T16:38:27.330Z,94.28
2023-01-20T16:41:04.703Z,94.50
2023-01-20T16:43:41.005Z,94.75
2023-01-20T16:46:16.412Z,94.93
2023-01-20T16:48:49.221Z,94.80
2023-01-20T16:51:27.323Z,95.19
2023-01-20T16:54:00.834Z,95.30
2023-01-20T16:56:35.311Z,94.95
2023-01-20T16:59:08.214Z,94.72
2023-01-20T17:01:41.188Z,94.80
2023-01-20T17:04:13.492Z,95.00
2023-01-20T17:06:45.885Z,95.46
2023-01-20T17:09:18.337Z,95.20
2023-01-20T17:11:51.254Z,95.42
2023-01-20T17:14:23.562Z,95.82
2023-01-20T17:16:59.926Z,95.91
2023-01-20T17:19:32.478Z,95.91
2023-01-20T17:22:04.891Z,95.81
2023-01-20T17:24:39.348Z,96.31
2023-01-20T17:27:11.710Z,96.83
2023-01-20T17:29:44.029Z,96.93
2023-01-20T17:32:18.309Z,96.98
2023-01-20T17:34:51.784Z,97.13
2023-01-20T17:37:24.159Z,96.78
2023-01-20T17:39:56.637Z,96.81
2023-01-20T17:42:28.981Z,97.02
2023-01-20T17:45:03.546Z,97.12
2023-01-20T17:47:35.949Z,97.00
2023-01-20T17:50:09.943Z,97.00
2023-01-20T17:52:42.401Z,97.20
2023-01-20T17:55:15.899Z,96.97
2023-01-20T17:57:48.322Z,96.89
2023-01-20T18:00:22.314Z,97.59
2023-01-20T18:02:58.212Z,97.54
2023-01-20T18:05:31.553Z,97.52
2023-01-20T18:08:04.290Z,98.56
2023-01-20T18:10:39.640Z,97.94
2023-01-20T18:13:11.898Z,98.10
2023-01-20T18:15:44.362Z,98.44
2023-01-20T18:18:16.854Z,98.37
2023-01-20T18:20:49.590Z,98.28
2023-01-20T18:23:21.889Z,98.74
2023-01-20T18:25:58.653Z,99.10
2023-01-20T18:28:37.019Z,98.90
2023-01-20T18:31:13.851Z,98.63
2023-01-20T18:33:48.212Z,99.18
2023-01-20T18:36:23.685Z,99.42
2023-01-20T18:38:59.051Z,99.07
2023-01-20T18:41:36.405Z,98.93
2023-01-20T18:44:10.125Z,99.76
2023-01-20T18:46:42.891Z,99.90
2023-01-20T18:49:16.175Z,99.75
2023-01-20T18:51:48.527Z,99.97
2023-01-20T18:54:22.179Z,100.00
2023-01-20T18:56:54.582Z,100.00
2023-01-20T18:59:27.082Z,100.00
2023-01-20T19:01:59.591Z,100.00
2023-01-20T19:04:33.648Z,100.00
2023-01-20T19:07:06.098Z,100.00
2023-01-20T19:09:38.368Z,100.00
2023-01-20T19:12:14.066Z,100.00
2023-01-20T19:14:46.701Z,100.00
2023-01-20T19:17:18.950Z,100.00
2023-01-20T19:19:51.324Z,100.00
2023-01-20T19:22:23.607Z,100.00
2023-01-20T19:24:56.004Z,100.00
2023-01-20T19:27:28.415Z,100.00
2023-01-20T19:30:01.146Z,100.00
2023-01-20T19:32:33.528Z,100.00
2023-01-20T19:35:06.227Z,100.00
2023-01-20T19:37:38.836Z,100.00
2023-01-20T19:40:13.447Z,100.00
2023-01-20T19:42:48.904Z,100.00
2023-01-20T19:45:26.952Z,100.00
2023-01-20T19:48:04.546Z,100.00
2023-01-20T19:50:37.566Z,100.00
2023-01-20T19:53:10.358Z,100.00
2023-01-20T19:55:42.794Z,100.00
2023-01-20T19:58:15.963Z,100.00
2023-01-20T20:00:48.274Z,100.00
2023-01-20T20:03:23.378Z,100.00
2023-01-20T20:05:57.419Z,100.00
2023-01-20T20:08:29.817Z,100.00
2023-01-20T20:11:02.839Z,100.00
2023-01-20T20:13:38.355Z,100.00
2023-01-20T20:16:12.657Z,100.00
2023-01-20T20:18:44.973Z,100.00
2023-01-20T20:21:17.381Z,100.00
2023-01-20T20:23:52.905Z,100.00
2023-01-20T20:26:29.462Z,100.00
2023-01-20T20:29:04.289Z,100.00
2023-01-20T20:31:40.404Z,100.00
2023-01-20T20:34:16.073Z,100.00
2023-01-20T20:36:50.248Z,100.00
2023-01-20T20:39:22.712Z,100.00
2023-01-20T20:41:56.527Z,100.00
2023-01-20T20:44:29.170Z,100.00
2023-01-20T20:47:01.641Z,100.00
2023-01-20T20:49:33.975Z,100.00
2023-01-20T20:52:08.792Z,100.00
2023-01-20T20:54:44.150Z,100.00
2023-01-20T20:57:16.653Z,100.00
2023-01-20T20:59:59.197Z,100.00
2023-01-20T21:02:35.021Z,100.00
2023-01-20T21:05:09.293Z,100.00
2023-01-20T21:07:41.924Z,100.00
2023-01-20T21:10:17.073Z,100.00
2023-01-20T21:12:50.605Z,100.00
2023-01-20T21:15:23.293Z,100.00
2023-01-20T21:17:55.727Z,100.00
2023-01-20T21:20:32.813Z,100.00
2023-01-20T21:23:05.241Z,100.00
2023-01-20T21:25:38.782Z,100.00
2023-01-20T21:28:16.626Z,100.00
2023-01-20T21:31:02.561Z,100.00
2023-01-20T21:33:38.256Z,100.00
2023-01-20T21:36:13.230Z,100.00
2023-01-20T21:38:46.709Z,100.00
2023-01-20T21:41:24.030Z,100.00
2023-01-20T21:44:13.897Z,100.00
2023-01-20T21:46:46.547Z,100.00
2023-01-20T21:49:36.720Z,100.00
2023-01-20T21:52:28.227Z,100.00
2023-01-20T21:55:00.832Z,100.00
2023-01-20T21:57:33.769Z,100.00
2023-01-20T22:00:09.197Z,100.00
2023-01-20T22:02:45.831Z,100.00
2023-01-20T22:05:20.743Z,100.00
2023-01-20T22:07:52.984Z,100.00
2023-01-20T22:10:29.485Z,100.00
2023-01-20T22:13:03.162Z,100.00
2023-01-20T22:15:40.286Z,100.00
2023-01-20T22:18:12.699Z,100.00
2023-01-20T22:20:45.522Z,100.00
2023-01-20T22:23:17.923Z,100.00
2023-01-20T22:25:53.578Z,100.00
2023-01-20T22:28:26.284Z,100.00
2023-01-20T22:31:05.352Z,100.00
2023-01-20T22:33:39.958Z,100.00
2023-01-20T22:36:12.817Z,100.00
2023-01-20T22:38:46.045Z,100.00
2023-01-20T22:41:19.163Z,100.00
2023-01-20T22:43:53.407Z,100.00
2023-01-20T22:46:28.055Z,100.00
2023-01-20T22:49:01.086Z,100.00
2023-01-20T22:51:33.798Z,100.00
2023-01-20T22:54:07.233Z,100.00
2023-01-20T22:56:40.459Z,100.00
2023-01-20T22:59:15.162Z,100.00
2023-01-20T23:01:47.583Z,100.00
2023-01-20T23:04:20.033Z,100.00
2023-01-20T23:06:52.397Z,100.00
2023-01-20T23:09:24.773Z,100.00
2023-01-20T23:11:57.525Z,100.00
2023-01-20T23:14:44.325Z,100.00
2023-01-20T23:17:16.769Z,100.00
2023-01-20T23:19:49.133Z,100.00
2023-01-20T23:22:21.673Z,100.00
2023-01-20T23:24:53.908Z,100.00
2023-01-20T23:27:26.219Z,100.00
2023-01-20T23:29:58.900Z,100.00
2023-01-20T23:32:31.244Z,100.00
2023-01-20T23:35:03.849Z,100.00
2023-01-20T23:37:36.856Z,100.00
2023-01-20T23:40:11.944Z,100.00
2023-01-20T23:42:44.730Z,100.00
2023-01-20T23:45:17.676Z,100.00
2023-01-20T23:47:51.623Z,100.00
2023-01-20T23:50:26.321Z,100.00
2023-01-20T23:53:01.995Z,100.00
2023-01-20T23:55:34.530Z,100.00
2023-01-20T23:58:07.249Z,100.00
